Time;durP1;ratioP1;P1;durP2;ratioP2;P2;SDS_P1;SDS_P2;PMS_P1;PMS_P2;Temp;Humidity;BMP_temperature;BMP_pressure;BME280_temperature;BME280_humidity;BME280_pressure;Samples;Min_cycle;Max_cycle;Signal;HPM_P1;HPM_P2
2023/03/23 00:01:56;;;;;;;4.57;1.30;;;14.90;93.30;;;;;;5011591;28;20341;-73
2023/03/23 00:04:22;;;;;;;4.50;1.40;;;14.90;93.70;;;;;;5010297;28;20145;-73
2023/03/23 00:06:49;;;;;;;4.85;1.30;;;14.80;94.80;;;;;;5010259;28;20096;-73
2023/03/23 00:09:15;;;;;;;3.75;1.38;;;14.80;94.80;;;;;;5011080;28;20029;-73
2023/03/23 00:11:42;;;;;;;6.82;1.52;;;14.80;95.30;;;;;;5011133;28;20018;-72
2023/03/23 00:14:13;;;;;;;3.90;1.48;;;14.80;96.00;;;;;;5011200;28;20375;-72
2023/03/23 00:16:40;;;;;;;4.15;1.60;;;14.70;96.40;;;;;;5011501;28;20029;-71
2023/03/23 00:19:14;;;;;;;4.68;1.55;;;14.60;96.90;;;;;;5011253;28;20048;-73
2023/03/23 00:21:42;;;;;;;4.28;1.60;;;14.60;97.40;;;;;;5011118;28;20042;-72
2023/03/23 00:24:12;;;;;;;4.57;1.83;;;14.60;97.80;;;;;;5010590;28;20041;-72
2023/03/23 00:26:40;;;;;;;6.55;1.90;;;14.60;97.90;;;;;;5011092;28;20479;-72
2023/03/23 00:29:13;;;;;;;3.50;1.47;;;14.70;97.60;;;;;;5011052;28;20033;-72
2023/03/23 00:31:39;;;;;;;4.55;1.45;;;14.60;98.10;;;;;;5010950;28;20319;-72
2023/03/23 00:34:05;;;;;;;3.60;1.42;;;14.70;98.10;;;;;;5011021;28;20034;-72
2023/03/23 00:36:34;;;;;;;7.43;2.10;;;14.70;98.20;;;;;;5010776;28;20041;-72
2023/03/23 00:39:02;;;;;;;4.65;1.70;;;14.70;98.70;;;;;;5011455;28;20032;-72
2023/03/23 00:41:30;;;;;;;8.38;1.70;;;14.50;98.60;;;;;;5011164;28;20436;-71
2023/03/23 00:43:57;;;;;;;5.55;2.30;;;14.50;98.80;;;;;;5009673;28;20038;-73
2023/03/23 00:46:24;;;;;;;2.08;1.50;;;14.40;98.90;;;;;;5010684;28;20041;-71
2023/03/23 00:48:50;;;;;;;4.53;1.67;;;14.40;98.90;;;;;;5010866;28;20480;-72
2023/03/23 00:51:17;;;;;;;4.80;1.80;;;14.50;98.90;;;;;;5011173;28;20018;-71
2023/03/23 00:53:43;;;;;;;7.87;1.87;;;14.60;99.00;;;;;;5011164;28;20025;-72
2023/03/23 00:56:09;;;;;;;7.45;2.08;;;14.50;99.10;;;;;;5010747;28;20303;-72
2023/03/23 00:58:35;;;;;;;5.90;2.13;;;14.60;99.10;;;;;;5010692;28;20077;-71
2023/03/23 01:01:01;;;;;;;5.80;1.85;;;14.50;99.60;;;;;;5009620;28;20045;-72
2023/03/23 01:03:28;;;;;;;7.13;1.60;;;14.40;99.40;;;;;;5010618;28;20025;-71
2023/03/23 01:05:54;;;;;;;2.20;1.45;;;14.30;99.90;;;;;;5011305;28;20101;-73
2023/03/23 01:08:21;;;;;;;3.75;1.73;;;14.30;99.70;;;;;;5010741;28;20522;-71
2023/03/23 01:10:48;;;;;;;6.15;1.60;;;14.30;99.60;;;;;;5009931;28;20370;-71
2023/03/23 01:13:15;;;;;;;3.05;1.85;;;14.30;99.90;;;;;;5010685;28;20055;-72
2023/03/23 01:15:41;;;;;;;7.28;1.73;;;14.30;99.80;;;;;;5010450;28;20030;-71
2023/03/23 01:18:08;;;;;;;11.20;2.00;;;14.10;99.90;;;;;;5009919;28;20119;-73
2023/03/23 01:20:36;;;;;;;4.32;1.80;;;14.10;99.90;;;;;;5009399;28;20038;-72
2023/03/23 01:23:03;;;;;;;6.40;2.00;;;14.10;99.90;;;;;;5013022;28;20448;-72
2023/03/23 01:25:31;;;;;;;3.90;1.65;;;14.20;99.90;;;;;;5014158;28;20048;-72
2023/03/23 01:27:58;;;;;;;3.42;1.83;;;14.00;99.90;;;;;;5014094;28;20076;-72
2023/03/23 01:30:24;;;;;;;4.22;1.83;;;14.10;99.90;;;;;;5014065;28;20022;-72
2023/03/23 01:32:50;;;;;;;4.68;1.83;;;14.10;99.90;;;;;;5014617;28;20109;-72
2023/03/23 01:35:16;;;;;;;5.13;2.00;;;14.10;99.90;;;;;;5014157;28;20399;-73
2023/03/23 01:37:42;;;;;;;4.32;1.85;;;13.90;99.90;;;;;;5012728;28;20042;-72
2023/03/23 01:40:08;;;;;;;6.03;1.80;;;14.00;99.90;;;;;;5013990;28;20108;-72
2023/03/23 01:42:36;;;;;;;4.13;1.90;;;14.00;99.90;;;;;;5012859;28;20030;-72
2023/03/23 01:45:20;;;;;;;3.92;2.03;;;13.90;99.90;;;;;;5013261;28;20026;-73
2023/03/23 01:47:49;;;;;;;4.93;1.80;;;14.00;99.90;;;;;;4987042;28;20511;-71
2023/03/23 01:50:15;;;;;;;4.85;1.90;;;14.00;99.90;;;;;;5013803;28;20061;-73
2023/03/23 01:52:41;;;;;;;5.90;1.92;;;13.80;99.90;;;;;;5012858;28;20037;-74
2023/03/23 01:55:08;;;;;;;7.25;2.28;;;13.80;99.90;;;;;;5014065;28;20026;-74
2023/03/23 01:57:34;;;;;;;5.88;1.83;;;13.80;99.90;;;;;;5013121;28;20029;-73
2023/03/23 02:00:14;;;;;;;8.73;2.03;;;13.80;99.90;;;;;;5014366;28;20022;-72
2023/03/23 02:02:45;;;;;;;4.50;1.98;;;13.80;99.90;;;;;;5012669;28;20042;-73
2023/03/23 02:05:17;;;;;;;4.45;1.83;;;13.90;99.90;;;;;;5013589;28;20061;-73
2023/03/23 02:07:44;;;;;;;6.90;1.83;;;13.80;99.90;;;;;;5012293;28;20515;-73
2023/03/23 02:10:10;;;;;;;7.22;1.58;;;13.80;99.90;;;;;;5012197;28;20527;-73
2023/03/23 02:12:35;;;;;;;5.65;2.08;;;13.90;99.90;;;;;;5013244;28;20374;-72
2023/03/23 02:15:04;;;;;;;4.97;1.75;;;13.80;99.90;;;;;;5012745;28;20440;-71
2023/03/23 02:18:03;;;;;;;3.78;1.70;;;13.80;99.90;;;;;;5013580;28;20053;-72
2023/03/23 02:21:05;;;;;;;8.60;2.03;;;13.90;99.90;;;;;;5013174;28;20060;-73
2023/03/23 02:23:36;;;;;;;5.57;1.70;;;13.90;99.90;;;;;;5011437;28;20092;-73
2023/03/23 02:26:10;;;;;;;4.55;1.98;;;14.00;99.90;;;;;;5011927;28;20037;-72
2023/03/23 02:29:03;;;;;;;2.83;1.55;;;13.80;99.90;;;;;;5012915;28;20049;-73
2023/03/23 02:31:56;;;;;;;2.45;1.73;;;13.80;99.90;;;;;;5012906;28;20173;-72
2023/03/23 02:34:47;;;;;;;2.35;1.50;;;13.90;99.90;;;;;;5011427;28;20087;-72
2023/03/23 02:37:23;;;;;;;4.35;1.60;;;13.90;99.90;;;;;;5012174;28;20452;-73
2023/03/23 02:39:57;;;;;;;4.57;1.80;;;13.90;99.90;;;;;;5012826;28;20472;-73
2023/03/23 02:42:32;;;;;;;3.38;1.70;;;13.80;99.90;;;;;;5012893;28;20061;-73
2023/03/23 02:45:03;;;;;;;3.55;1.67;;;13.80;99.90;;;;;;5028666;28;20360;-72
2023/03/23 02:47:30;;;;;;;5.85;1.50;;;13.80;99.90;;;;;;5028121;28;20026;-73
2023/03/23 02:49:58;;;;;;;3.90;1.60;;;13.80;99.90;;;;;;5028226;28;20029;-72
2023/03/23 02:52:30;;;;;;;8.10;2.15;;;13.80;99.90;;;;;;5012583;28;20030;-72
2023/03/23 02:54:59;;;;;;;7.35;1.75;;;13.80;99.90;;;;;;5012441;28;20032;-72
2023/03/23 02:57:27;;;;;;;3.53;1.80;;;13.80;99.90;;;;;;5027993;28;20069;-72
2023/03/23 02:59:53;;;;;;;5.20;1.80;;;14.00;99.90;;;;;;5012981;28;20487;-73
2023/03/23 03:02:26;;;;;;;9.90;1.65;;;13.80;99.90;;;;;;5012573;28;20060;-72
2023/03/23 03:05:20;;;;;;;6.25;1.98;;;13.80;99.90;;;;;;5012351;28;20045;-72
2023/03/23 03:07:56;;;;;;;3.00;1.65;;;13.80;99.90;;;;;;5012443;28;20044;-72
2023/03/23 03:10:39;;;;;;;4.68;1.60;;;13.80;99.90;;;;;;5012435;28;20065;-72
2023/03/23 03:13:24;;;;;;;2.17;1.50;;;13.80;99.90;;;;;;5012316;28;20129;-73
2023/03/23 03:15:55;;;;;;;4.07;1.98;;;13.80;99.90;;;;;;5027646;28;20061;-72
2023/03/23 03:18:31;;;;;;;4.53;1.85;;;13.80;99.90;;;;;;5027671;28;20100;-73
2023/03/23 03:21:05;;;;;;;5.63;1.92;;;13.80;99.90;;;;;;5027838;28;20025;-71
2023/03/23 03:23:34;;;;;;;4.45;1.58;;;13.70;99.90;;;;;;5012206;28;20064;-72
2023/03/23 03:26:04;;;;;;;5.75;1.98;;;13.80;99.90;;;;;;5012007;28;20595;-72
2023/03/23 03:28:32;;;;;;;5.82;1.90;;;13.70;99.90;;;;;;5012015;28;20433;-73
2023/03/23 03:31:01;;;;;;;3.28;1.48;;;13.80;99.90;;;;;;5011771;28;20045;-73
2023/03/23 03:33:30;;;;;;;3.33;1.73;;;13.70;99.90;;;;;;5011870;28;20348;-73
2023/03/23 03:35:59;;;;;;;3.42;1.85;;;13.80;99.90;;;;;;5027637;28;20340;-73
2023/03/23 03:38:25;;;;;;;1.73;1.52;;;13.70;99.90;;;;;;5011757;28;20368;-72
2023/03/23 03:40:51;;;;;;;5.28;1.85;;;13.70;99.90;;;;;;5027196;28;20033;-73
2023/03/23 03:43:17;;;;;;;4.72;2.08;;;13.70;99.90;;;;;;5011762;28;20030;-73
2023/03/23 03:45:44;;;;;;;4.63;2.05;;;13.60;99.90;;;;;;5010873;28;20037;-73
2023/03/23 03:48:09;;;;;;;5.30;2.22;;;13.70;99.90;;;;;;5011891;28;20092;-73
2023/03/23 03:50:35;;;;;;;3.67;1.75;;;13.60;99.90;;;;;;5012133;28;20034;-72
2023/03/23 03:53:01;;;;;;;4.47;1.73;;;13.60;99.90;;;;;;5026915;28;20444;-73
2023/03/23 03:55:27;;;;;;;2.88;1.70;;;13.60;99.90;;;;;;5011488;28;20044;-73
2023/03/23 03:57:57;;;;;;;4.53;1.77;;;13.60;99.90;;;;;;5026948;28;20143;-72
2023/03/23 04:00:23;;;;;;;3.15;1.80;;;13.60;99.90;;;;;;5011894;28;20080;-72
2023/03/23 04:02:54;;;;;;;4.25;1.88;;;13.60;99.90;;;;;;5027419;28;20341;-72
2023/03/23 04:05:21;;;;;;;4.47;1.80;;;13.60;99.90;;;;;;5011325;28;20025;-73
2023/03/23 04:07:51;;;;;;;3.13;1.52;;;13.70;99.90;;;;;;5011295;28;20037;-73
2023/03/23 04:10:21;;;;;;;2.28;1.48;;;13.60;99.90;;;;;;5011238;28;20518;-73
2023/03/23 04:12:48;;;;;;;2.83;1.48;;;13.60;99.90;;;;;;5011261;28;20042;-73
2023/03/23 04:15:14;;;;;;;1.55;1.45;;;13.60;99.90;;;;;;5026648;28;20341;-73
2023/03/23 04:17:40;;;;;;;5.10;1.92;;;13.70;99.90;;;;;;5011680;28;20413;-73
2023/03/23 04:20:15;;;;;;;4.38;1.90;;;13.60;99.90;;;;;;5011135;28;20069;-73
2023/03/23 04:22:43;;;;;;;4.65;1.75;;;13.60;99.90;;;;;;5011159;28;20099;-74
2023/03/23 04:25:11;;;;;;;6.07;1.60;;;13.50;99.90;;;;;;5011151;28;20037;-73
2023/03/23 04:27:38;;;;;;;4.05;1.92;;;13.60;99.90;;;;;;5026279;28;20038;-73
2023/03/23 04:30:06;;;;;;;6.27;1.93;;;13.50;99.90;;;;;;5026975;28;20037;-72
2023/03/23 04:32:32;;;;;;;3.17;1.50;;;13.60;99.90;;;;;;5010968;28;20421;-71
2023/03/23 04:35:01;;;;;;;5.18;1.30;;;13.50;99.90;;;;;;5010867;28;20287;-73
2023/03/23 04:37:28;;;;;;;3.97;1.67;;;13.50;99.90;;;;;;5010731;28;20377;-73
2023/03/23 04:40:00;;;;;;;6.10;1.77;;;13.50;99.90;;;;;;5010911;28;20044;-73
2023/03/23 04:42:30;;;;;;;4.10;1.60;;;13.50;99.90;;;;;;5026250;28;20144;-73
2023/03/23 04:45:01;;;;;;;2.22;1.40;;;13.50;99.90;;;;;;5011255;28;20056;-73
2023/03/23 04:47:30;;;;;;;4.47;1.70;;;13.60;99.90;;;;;;5026152;28;20026;-73
2023/03/23 04:49:57;;;;;;;1.83;1.25;;;13.50;99.90;;;;;;5011154;28;20029;-73
2023/03/23 04:52:28;;;;;;;2.80;1.38;;;13.60;99.90;;;;;;5010947;28;20042;-73
2023/03/23 04:54:55;;;;;;;2.80;1.40;;;13.60;99.90;;;;;;5026945;28;20026;-73
2023/03/23 04:57:21;;;;;;;1.67;1.30;;;13.60;99.90;;;;;;5012428;28;20022;-73
2023/03/23 04:59:47;;;;;;;2.22;1.30;;;13.60;99.90;;;;;;5015128;28;20029;-72
2023/03/23 05:02:13;;;;;;;3.97;1.42;;;13.60;99.90;;;;;;5015059;28;20341;-72
2023/03/23 05:04:43;;;;;;;2.35;1.50;;;13.50;99.90;;;;;;5030109;28;20053;-72
2023/03/23 05:07:11;;;;;;;3.58;1.10;;;13.50;99.90;;;;;;5014530;28;20124;-73
2023/03/23 05:09:37;;;;;;;4.47;1.40;;;13.60;99.90;;;;;;5014395;28;20479;-74
2023/03/23 05:12:07;;;;;;;3.97;1.60;;;13.70;99.90;;;;;;5015577;28;20042;-73
2023/03/23 05:14:33;;;;;;;5.30;1.45;;;13.50;99.90;;;;;;5014334;28;20117;-73
2023/03/23 05:16:59;;;;;;;2.78;1.40;;;13.50;99.90;;;;;;5014420;28;20433;-73
2023/03/23 05:19:24;;;;;;;4.47;1.58;;;13.40;99.90;;;;;;5014432;28;20033;-73
2023/03/23 05:21:50;;;;;;;1.95;1.33;;;13.40;99.90;;;;;;5014792;28;20452;-73
2023/03/23 05:24:16;;;;;;;5.22;1.58;;;13.40;99.90;;;;;;5014294;28;20345;-72
2023/03/23 05:26:41;;;;;;;1.83;1.10;;;13.40;99.90;;;;;;5014927;28;20034;-73
2023/03/23 05:29:07;;;;;;;3.58;1.38;;;13.40;99.90;;;;;;5014628;28;20026;-72
2023/03/23 05:31:33;;;;;;;2.22;1.42;;;13.40;99.90;;;;;;5014014;28;20054;-71
2023/03/23 05:33:58;;;;;;;2.67;1.30;;;13.50;99.90;;;;;;5029385;28;20030;-71
2023/03/23 05:36:24;;;;;;;3.55;1.40;;;13.40;99.90;;;;;;5013923;28;20030;-73
2023/03/23 05:38:53;;;;;;;1.60;0.80;;;13.40;99.90;;;;;;5030110;28;20104;-73
2023/03/23 05:41:18;;;;;;;4.72;1.42;;;13.40;99.90;;;;;;5013959;28;20045;-73
2023/03/23 05:43:44;;;;;;;2.15;0.77;;;13.40;99.90;;;;;;5013976;28;20026;-73
2023/03/23 05:46:10;;;;;;;5.05;1.27;;;13.30;99.90;;;;;;5029441;28;20085;-73
2023/03/23 05:48:36;;;;;;;7.15;1.30;;;13.40;99.90;;;;;;5013928;28;20364;-72
2023/03/23 05:51:02;;;;;;;2.20;1.25;;;13.40;99.90;;;;;;5014693;28;20093;-71
2023/03/23 05:53:30;;;;;;;2.08;0.93;;;13.40;99.90;;;;;;5013882;28;20474;-73
2023/03/23 05:56:00;;;;;;;;;;;13.30;99.90;;;;;;5014093;28;20026;-71
2023/03/23 05:58:26;;;;;;;2.70;1.67;;;13.40;99.90;;;;;;5029203;28;19909;-72
2023/03/23 06:00:51;;;;;;;2.75;1.45;;;13.40;99.90;;;;;;5013860;28;20480;-72
2023/03/23 06:03:17;;;;;;;1.92;1.08;;;13.40;99.90;;;;;;5012546;28;20427;-71
2023/03/23 06:05:45;;;;;;;1.92;1.20;;;13.50;99.90;;;;;;5029415;28;20022;-71
2023/03/23 06:08:12;;;;;;;4.10;1.40;;;13.50;99.90;;;;;;5012640;28;20042;-72
2023/03/23 06:10:37;;;;;;;4.32;1.67;;;13.50;99.90;;;;;;5012883;28;20041;-73
2023/03/23 06:13:05;;;;;;;3.15;1.40;;;13.50;99.90;;;;;;5013489;28;20041;-71
2023/03/23 06:15:32;;;;;;;0.95;0.75;;;13.50;99.90;;;;;;5013807;28;20124;-71
2023/03/23 06:18:02;;;;;;;3.07;1.27;;;13.50;99.90;;;;;;5014172;28;20097;-71
2023/03/23 06:20:28;;;;;;;3.63;1.35;;;13.50;99.90;;;;;;5028928;28;20045;-72
2023/03/23 06:22:55;;;;;;;1.58;1.00;;;13.60;99.90;;;;;;5008839;28;20030;-72
2023/03/23 06:25:22;;;;;;;2.28;1.10;;;13.60;99.90;;;;;;5002812;28;20057;-72
2023/03/23 06:27:48;;;;;;;1.40;0.82;;;13.60;99.90;;;;;;5012998;28;20053;-72
2023/03/23 06:30:17;;;;;;;1.48;1.00;;;13.50;99.90;;;;;;5028464;28;20025;-72
2023/03/23 06:32:45;;;;;;;3.40;1.00;;;13.60;99.90;;;;;;5013353;28;20053;-73
2023/03/23 06:35:12;;;;;;;2.33;1.00;;;13.60;99.90;;;;;;5013367;28;20088;-74
2023/03/23 06:37:38;;;;;;;1.38;1.10;;;13.60;99.90;;;;;;5012756;28;20531;-72
2023/03/23 06:40:09;;;;;;;4.72;1.42;;;13.60;99.90;;;;;;5013130;28;20168;-73
2023/03/23 06:42:35;;;;;;;3.40;1.08;;;13.60;99.90;;;;;;5012766;28;20034;-72
2023/03/23 06:45:02;;;;;;;0.95;0.60;;;13.70;99.90;;;;;;5013095;28;20084;-74
2023/03/23 06:47:29;;;;;;;3.17;0.93;;;13.80;99.90;;;;;;5012634;28;20034;-72
2023/03/23 06:49:55;;;;;;;2.90;1.20;;;13.80;99.90;;;;;;5028220;28;20472;-73
2023/03/23 06:52:22;;;;;;;2.40;0.80;;;13.90;99.90;;;;;;5012606;28;20255;-73
2023/03/23 06:54:48;;;;;;;1.83;1.05;;;13.90;99.90;;;;;;5027774;28;20034;-70
2023/03/23 06:57:15;;;;;;;1.92;1.33;;;13.90;99.90;;;;;;5012548;28;20349;-74
2023/03/23 06:59:41;;;;;;;1.15;0.98;;;14.00;99.90;;;;;;5012967;28;20107;-74
2023/03/23 07:02:11;;;;;;;2.22;1.02;;;14.00;99.80;;;;;;5028425;28;20460;-74
2023/03/23 07:04:40;;;;;;;2.83;1.20;;;14.00;99.80;;;;;;5027604;28;20061;-73
2023/03/23 07:07:08;;;;;;;1.88;1.42;;;14.10;99.90;;;;;;5027672;28;20037;-74
2023/03/23 07:09:33;;;;;;;;;;;14.10;99.90;;;;;;5012835;28;20089;-73
2023/03/23 07:12:00;;;;;;;4.28;2.05;;;14.10;99.80;;;;;;5012719;28;19913;-72
2023/03/23 07:14:26;;;;;;;2.60;1.25;;;14.00;99.80;;;;;;5012525;28;20046;-70
2023/03/23 07:16:53;;;;;;;2.35;1.27;;;14.10;99.80;;;;;;5012441;28;20160;-70
2023/03/23 07:19:19;;;;;;;3.03;1.55;;;14.10;99.80;;;;;;5012266;28;20030;-70
2023/03/23 07:21:45;;;;;;;1.60;1.10;;;14.10;99.80;;;;;;5011873;28;20124;-69
2023/03/23 07:24:13;;;;;;;2.88;1.15;;;14.10;99.90;;;;;;5012850;28;20022;-70
2023/03/23 07:26:41;;;;;;;4.05;1.63;;;14.20;99.80;;;;;;5011922;28;20491;-72
2023/03/23 07:29:08;;;;;;;3.20;0.82;;;14.10;99.80;;;;;;5011955;28;20042;-71
2023/03/23 07:31:34;;;;;;;1.63;0.90;;;14.20;99.80;;;;;;5012170;28;20042;-71
2023/03/23 07:34:00;;;;;;;2.25;1.10;;;14.20;99.70;;;;;;5011914;28;20030;-70
2023/03/23 07:36:27;;;;;;;2.38;1.00;;;14.20;99.60;;;;;;5018138;28;20057;-71
2023/03/23 07:38:53;;;;;;;4.60;1.20;;;14.40;99.60;;;;;;5027771;28;20033;-70
2023/03/23 07:41:19;;;;;;;1.83;1.27;;;14.40;99.50;;;;;;5012010;28;20029;-71
2023/03/23 07:43:45;;;;;;;1.88;1.02;;;14.40;99.50;;;;;;5012073;28;20483;-70
2023/03/23 07:46:12;;;;;;;4.63;1.30;;;14.50;99.40;;;;;;5011347;28;20045;-70
2023/03/23 07:48:38;;;;;;;6.25;1.95;;;14.50;99.20;;;;;;5011554;28;20535;-71
2023/03/23 07:51:05;;;;;;;11.00;2.38;;;14.60;99.20;;;;;;5012276;28;20021;-72
2023/03/23 07:53:31;;;;;;;4.07;1.20;;;14.60;99.00;;;;;;5027439;28;20053;-71
2023/03/23 07:55:57;;;;;;;3.38;1.10;;;14.70;98.90;;;;;;5011785;28;20045;-70
2023/03/23 07:58:23;;;;;;;2.78;1.25;;;14.80;98.90;;;;;;5011285;28;20038;-73
2023/03/23 08:00:49;;;;;;;1.90;1.10;;;14.80;98.60;;;;;;5011286;28;20116;-70
2023/03/23 08:03:15;;;;;;;1.63;1.10;;;14.80;98.60;;;;;;5011387;28;20020;-69
2023/03/23 08:05:42;;;;;;;2.75;1.48;;;14.90;98.50;;;;;;5011735;28;20034;-72
2023/03/23 08:08:09;;;;;;;3.70;1.33;;;14.90;98.30;;;;;;5011592;28;20121;-73
2023/03/23 08:10:35;;;;;;;2.65;1.20;;;15.10;98.20;;;;;;5011052;28;20318;-72
2023/03/23 08:13:01;;;;;;;2.13;1.40;;;15.10;98.30;;;;;;5026341;28;20041;-70
2023/03/23 08:15:28;;;;;;;3.35;1.20;;;15.20;98.10;;;;;;5010907;28;20030;-71
2023/03/23 08:17:54;;;;;;;2.85;1.27;;;15.20;97.70;;;;;;5011519;28;20455;-70
2023/03/23 08:20:25;;;;;;;7.28;1.60;;;15.20;97.80;;;;;;5009918;28;20461;-69
2023/03/23 08:22:53;;;;;;;6.40;2.03;;;15.20;97.80;;;;;;5010945;28;20114;-71
2023/03/23 08:25:19;;;;;;;3.47;1.50;;;15.40;97.60;;;;;;5009982;28;20045;-70
2023/03/23 08:27:45;;;;;;;2.83;1.30;;;15.40;97.40;;;;;;5009778;28;20400;-72
2023/03/23 08:30:16;;;;;;;5.88;1.40;;;15.50;97.30;;;;;;5011783;28;20484;-72
2023/03/23 08:32:42;;;;;;;3.88;1.50;;;15.40;97.00;;;;;;5010380;28;20069;-71
2023/03/23 08:35:10;;;;;;;2.40;1.30;;;15.40;97.10;;;;;;5010762;28;20412;-72
2023/03/23 08:37:37;;;;;;;4.68;1.55;;;15.40;97.00;;;;;;5010699;28;20034;-72
2023/03/23 08:40:09;;;;;;;7.15;1.00;;;15.50;97.00;;;;;;5010835;28;20115;-72
2023/03/23 08:42:38;;;;;;;2.90;1.38;;;15.50;97.00;;;;;;5009748;28;20368;-71
2023/03/23 08:45:07;;;;;;;4.47;1.67;;;15.40;96.90;;;;;;5010218;28;20065;-71
2023/03/23 08:47:33;;;;;;;;;;;15.40;97.00;;;;;;5010359;28;20068;-71
2023/03/23 08:49:59;;;;;;;2.70;1.30;;;15.40;97.00;;;;;;5010761;28;19948;-71
2023/03/23 08:52:25;;;;;;;4.10;1.20;;;15.50;97.00;;;;;;5010709;28;20076;-71
2023/03/23 08:54:50;;;;;;;6.47;1.48;;;15.50;96.90;;;;;;5010591;28;20041;-71
2023/03/23 08:57:16;;;;;;;3.35;1.77;;;15.50;96.90;;;;;;5010849;28;20025;-72
2023/03/23 08:59:42;;;;;;;6.07;1.58;;;15.50;96.90;;;;;;5011131;28;20032;-71
2023/03/23 09:02:14;;;;;;;7.40;1.60;;;15.50;96.90;;;;;;5009494;28;20460;-71
2023/03/23 09:04:43;;;;;;;7.30;1.75;;;15.50;96.90;;;;;;5010576;28;20030;-70
2023/03/23 09:07:12;;;;;;;7.72;1.98;;;15.50;96.90;;;;;;5010538;28;20044;-70
2023/03/23 09:09:39;;;;;;;5.63;1.73;;;15.50;96.90;;;;;;5010465;28;20503;-71
2023/03/23 09:12:06;;;;;;;6.70;1.37;;;15.70;96.80;;;;;;5011016;28;20109;-70
2023/03/23 09:14:32;;;;;;;8.38;1.50;;;15.50;96.70;;;;;;5011070;28;20037;-71
2023/03/23 09:16:58;;;;;;;5.75;1.45;;;15.50;96.70;;;;;;5010844;28;20460;-72
2023/03/23 09:19:23;;;;;;;6.82;2.03;;;15.50;96.90;;;;;;5009244;28;20113;-72
2023/03/23 09:21:49;;;;;;;6.10;1.25;;;15.40;96.90;;;;;;5010274;28;20113;-71
2023/03/23 09:24:15;;;;;;;5.72;1.42;;;15.40;96.90;;;;;;5010592;28;20097;-72
2023/03/23 09:26:41;;;;;;;6.50;1.50;;;15.40;97.30;;;;;;5010725;28;20480;-72
2023/03/23 09:29:07;;;;;;;7.47;1.40;;;15.40;97.00;;;;;;5010088;28;20049;-72
2023/03/23 09:31:36;;;;;;;4.03;1.63;;;15.40;97.00;;;;;;5010136;28;20129;-71
2023/03/23 09:34:03;;;;;;;6.50;1.48;;;15.40;97.00;;;;;;5010371;28;20113;-71
2023/03/23 09:36:31;;;;;;;5.43;1.20;;;15.50;96.80;;;;;;5010198;28;20124;-70
2023/03/23 09:38:57;;;;;;;11.77;2.22;;;15.40;96.70;;;;;;5010473;28;20172;-72
2023/03/23 09:41:44;;;;;;;5.20;1.60;;;15.50;96.80;;;;;;5011022;28;20124;-72
2023/03/23 09:44:15;;;;;;;7.57;1.77;;;15.50;96.70;;;;;;5010123;28;20526;-71
2023/03/23 09:46:47;;;;;;;5.25;1.60;;;15.50;96.70;;;;;;5017528;28;20083;-72
2023/03/23 09:49:19;;;;;;;10.15;2.25;;;15.40;96.60;;;;;;5013745;28;20137;-70
2023/03/23 09:51:53;;;;;;;8.75;1.75;;;15.30;96.70;;;;;;5013322;28;20026;-70
2023/03/23 09:54:34;;;;;;;4.38;1.40;;;15.30;96.80;;;;;;5013457;28;20026;-70
2023/03/23 09:57:01;;;;;;;5.50;1.48;;;15.30;96.80;;;;;;5013955;28;20014;-71
2023/03/23 09:59:41;;;;;;;9.25;1.70;;;15.30;96.80;;;;;;5012580;28;20060;-71
2023/03/23 10:02:14;;;;;;;13.13;2.40;;;15.30;96.70;;;;;;5013325;28;20415;-70
2023/03/23 10:04:47;;;;;;;5.43;1.73;;;15.30;96.80;;;;;;5013605;28;20053;-71
2023/03/23 10:07:25;;;;;;;5.13;1.80;;;15.40;96.70;;;;;;5013291;28;20134;-71
2023/03/23 10:10:01;;;;;;;4.50;1.23;;;15.30;96.70;;;;;;5012245;28;20050;-69
2023/03/23 10:12:51;;;;;;;15.63;1.85;;;15.40;96.60;;;;;;5013602;28;20032;-70
2023/03/23 10:15:36;;;;;;;6.97;1.60;;;15.30;96.50;;;;;;5013235;28;20113;-71
2023/03/23 10:18:17;;;;;;;7.97;2.00;;;15.40;96.50;;;;;;5012500;28;20445;-70
2023/03/23 10:21:11;;;;;;;10.13;2.20;;;15.30;96.50;;;;;;5013423;28;20037;-71
2023/03/23 10:23:48;;;;;;;6.95;1.60;;;15.40;96.50;;;;;;5012503;28;20041;-71
2023/03/23 10:26:47;;;;;;;4.63;1.20;;;15.50;96.40;;;;;;5014775;28;20116;-70
2023/03/23 10:29:34;;;;;;;10.25;1.90;;;15.50;96.30;;;;;;5011959;28;20476;-71
2023/03/23 10:32:16;;;;;;;2.97;1.05;;;15.60;96.20;;;;;;5012675;28;20054;-71
2023/03/23 10:34:53;;;;;;;14.63;2.17;;;15.60;96.10;;;;;;5012710;28;20061;-71
2023/03/23 10:37:23;;;;;;;6.03;2.10;;;15.50;95.90;;;;;;5012772;28;20042;-72
2023/03/23 10:39:58;;;;;;;6.22;1.83;;;15.60;96.10;;;;;;5012660;28;20034;-71
2023/03/23 10:42:27;;;;;;;5.88;2.17;;;15.70;96.30;;;;;;5011523;28;20022;-72
2023/03/23 10:44:56;;;;;;;6.50;1.92;;;15.70;95.70;;;;;;5018677;28;20021;-71
2023/03/23 10:47:22;;;;;;;6.63;1.73;;;15.80;95.60;;;;;;5011819;28;20058;-71
2023/03/23 10:49:58;;;;;;;5.15;1.70;;;15.90;95.40;;;;;;5012652;28;20030;-72
2023/03/23 10:52:35;;;;;;;7.60;2.05;;;15.90;95.40;;;;;;5011265;28;20030;-69
2023/03/23 10:55:20;;;;;;;4.63;1.55;;;16.10;95.20;;;;;;5012151;28;20030;-69
2023/03/23 10:58:05;;;;;;;7.22;1.88;;;16.40;95.10;;;;;;5012749;28;20034;-68
2023/03/23 11:00:31;;;;;;;7.47;1.70;;;17.30;94.20;;;;;;5012453;28;20057;-70
2023/03/23 11:03:14;;;;;;;7.75;1.63;;;18.40;93.40;;;;;;5012915;28;20233;-70
2023/03/23 11:05:46;;;;;;;8.77;1.52;;;18.60;91.80;;;;;;5011038;28;20140;-70
2023/03/23 11:08:20;;;;;;;4.50;1.50;;;19.20;91.60;;;;;;5011198;28;20053;-70
2023/03/23 11:10:52;;;;;;;8.75;1.90;;;19.70;91.70;;;;;;5012225;28;20068;-71
2023/03/23 11:13:19;;;;;;;5.28;1.55;;;19.80;90.30;;;;;;5011231;28;20048;-72
2023/03/23 11:15:47;;;;;;;8.23;1.60;;;19.20;90.70;;;;;;5012249;28;20487;-72
2023/03/23 11:18:26;;;;;;;5.55;1.60;;;19.20;90.40;;;;;;5012972;28;20029;-71
2023/03/23 11:20:56;;;;;;;3.92;1.50;;;19.30;90.60;;;;;;5011247;28;20048;-71
2023/03/23 11:23:29;;;;;;;5.70;1.55;;;19.50;90.30;;;;;;5012112;28;20377;-70
2023/03/23 11:26:17;;;;;;;5.07;1.50;;;19.10;90.00;;;;;;5012029;28;20073;-71
2023/03/23 11:29:11;;;;;;;6.43;1.73;;;19.00;89.90;;;;;;5011878;28;20507;-70
2023/03/23 11:31:44;;;;;;;6.90;1.95;;;18.90;90.40;;;;;;5011192;28;20053;-70
2023/03/23 11:34:16;;;;;;;5.05;1.58;;;18.60;90.40;;;;;;5010670;28;20026;-71
2023/03/23 11:36:54;;;;;;;4.75;1.55;;;18.70;90.30;;;;;;5010476;28;20030;-72
2023/03/23 11:39:20;;;;;;;9.07;2.05;;;18.50;90.60;;;;;;5011817;28;20022;-70
2023/03/23 11:41:46;;;;;;;7.50;1.98;;;18.70;90.20;;;;;;5010769;28;20036;-70
2023/03/23 11:44:12;;;;;;;8.35;2.00;;;18.40;90.10;;;;;;5011609;28;20472;-71
2023/03/23 11:46:42;;;;;;;10.70;2.28;;;18.20;90.50;;;;;;5011298;28;20061;-72
2023/03/23 11:50:16;;;;;;;10.13;1.92;;;18.00;90.50;;;;;;5011443;28;20112;-71
2023/03/23 11:53:07;;;;;;;11.52;2.28;;;17.80;90.80;;;;;;5009261;28;20034;-71
2023/03/23 11:55:50;;;;;;;10.68;1.88;;;17.70;90.70;;;;;;5011503;28;20537;-70
2023/03/23 11:58:18;;;;;;;6.35;1.90;;;17.70;90.70;;;;;;5011911;28;20057;-70
2023/03/23 12:00:58;;;;;;;;;;;17.60;90.60;;;;;;5012381;28;20034;-72
2023/03/23 12:03:46;;;;;;;6.47;1.77;;;17.50;90.70;;;;;;5011470;28;19920;-71
2023/03/23 12:06:39;;;;;;;10.77;1.90;;;17.40;91.20;;;;;;5011777;28;20076;-71
2023/03/23 12:09:10;;;;;;;7.85;2.10;;;17.30;91.40;;;;;;5011174;28;20073;-71
2023/03/23 12:11:56;;;;;;;6.47;2.10;;;17.10;92.30;;;;;;5011060;28;20543;-71
2023/03/23 12:14:52;;;;;;;9.98;2.70;;;16.10;96.90;;;;;;5011040;28;20061;-69
2023/03/23 12:17:24;;;;;;;10.80;2.00;;;15.50;99.90;;;;;;5002460;28;20058;-69
2023/03/23 12:20:14;;;;;;;6.40;1.60;;;15.40;99.90;;;;;;5009205;28;20042;-71
2023/03/23 12:22:43;;;;;;;6.97;1.52;;;15.40;99.90;;;;;;5009665;28;20137;-73
2023/03/23 12:25:28;;;;;;;7.85;1.40;;;15.40;99.90;;;;;;5009888;28;20022;-71
2023/03/23 12:28:18;;;;;;;3.55;1.00;;;15.10;99.90;;;;;;5011278;28;20049;-71
2023/03/23 12:31:13;;;;;;;2.95;1.02;;;15.00;99.80;;;;;;5009825;28;20080;-70
2023/03/23 12:34:00;;;;;;;2.13;0.90;;;15.10;99.90;;;;;;5011066;28;20084;-73
2023/03/23 12:36:51;;;;;;;3.08;1.15;;;15.30;99.70;;;;;;5010982;28;20477;-72
2023/03/23 12:39:48;;;;;;;4.57;1.20;;;15.50;99.40;;;;;;5010845;28;20053;-71
2023/03/23 12:42:28;;;;;;;4.80;1.92;;;15.10;99.50;;;;;;5010651;28;20030;-72
2023/03/23 12:45:04;;;;;;;3.60;1.08;;;15.00;99.90;;;;;;5010387;28;20429;-73
2023/03/23 12:47:44;;;;;;;2.83;0.95;;;15.30;99.60;;;;;;5010845;28;20060;-71
2023/03/23 12:50:28;;;;;;;6.57;1.45;;;15.30;99.10;;;;;;5010954;28;20029;-72
2023/03/23 12:53:16;;;;;;;4.63;1.30;;;15.30;99.20;;;;;;5010962;28;20026;-71
2023/03/23 12:56:08;;;;;;;4.70;1.08;;;15.40;98.90;;;;;;5010834;28;20091;-71
2023/03/23 12:58:41;;;;;;;2.75;0.90;;;15.10;98.80;;;;;;5009696;28;20116;-72
2023/03/23 13:01:14;;;;;;;2.05;1.00;;;15.10;99.00;;;;;;5010844;28;20045;-70
2023/03/23 13:04:07;;;;;;;5.75;1.20;;;14.80;98.60;;;;;;5009597;28;20033;-71
2023/03/23 13:06:40;;;;;;;2.25;0.50;;;14.80;98.70;;;;;;5010857;28;20017;-71
2023/03/23 13:09:16;;;;;;;6.90;0.73;;;15.00;98.30;;;;;;5011114;28;20464;-71